createdAt,value
2022-07-27T00:01:07.554Z,2.20
2022-07-27T00:03:35.232Z,2.30
2022-07-27T00:06:02.810Z,1.90
2022-07-27T00:08:30.314Z,1.92
2022-07-27T00:10:57.910Z,1.70
2022-07-27T00:13:25.464Z,1.80
2022-07-27T00:15:53.074Z,1.88
2022-07-27T00:18:20.600Z,2.00
2022-07-27T00:20:48.180Z,1.95
2022-07-27T00:23:15.665Z,1.73
2022-07-27T00:25:43.181Z,1.40
2022-07-27T00:28:10.825Z,1.80
2022-07-27T00:30:38.469Z,1.58
2022-07-27T00:33:06.444Z,1.30
2022-07-27T00:35:35.766Z,1.55
2022-07-27T00:38:03.542Z,1.30
2022-07-27T00:40:31.835Z,1.45
2022-07-27T00:42:59.584Z,1.17
2022-07-27T00:45:27.104Z,1.30
2022-07-27T00:47:55.179Z,1.77
2022-07-27T00:50:23.345Z,1.65
2022-07-27T00:52:51.774Z,1.58
2022-07-27T00:55:19.556Z,1.40
2022-07-27T00:57:58.316Z,1.63
2022-07-27T01:00:28.843Z,1.40
2022-07-27T01:02:57.353Z,1.80
2022-07-27T01:05:35.820Z,1.60
2022-07-27T01:08:07.055Z,1.77
2022-07-27T01:10:35.763Z,1.83
2022-07-27T01:13:03.743Z,1.90
2022-07-27T01:15:37.626Z,1.88
2022-07-27T01:18:11.778Z,1.67
2022-07-27T01:23:11.205Z,2.08
2022-07-27T01:25:41.204Z,1.60
2022-07-27T01:28:08.858Z,1.85
2022-07-27T01:30:36.358Z,1.90
2022-07-27T01:33:06.126Z,2.28
2022-07-27T01:35:34.928Z,1.95
2022-07-27T01:38:03.389Z,2.03
2022-07-27T01:40:31.058Z,2.08
2022-07-27T01:42:58.665Z,1.98
2022-07-27T01:45:26.291Z,1.80
2022-07-27T01:47:53.933Z,2.15
2022-07-27T01:50:21.587Z,2.17
2022-07-27T01:52:48.998Z,2.58
2022-07-27T01:55:16.534Z,2.30
2022-07-27T01:57:44.305Z,2.03
2022-07-27T02:00:12.447Z,2.17
2022-07-27T02:02:40.736Z,1.98
2022-07-27T02:05:12.089Z,2.35
2022-07-27T02:07:41.429Z,2.17
2022-07-27T02:10:10.257Z,2.40
2022-07-27T02:12:38.314Z,2.30
2022-07-27T02:15:09.053Z,2.38
2022-07-27T02:17:45.010Z,2.47
2022-07-27T02:20:14.803Z,2.03
2022-07-27T02:22:43.257Z,2.33
2022-07-27T02:25:12.445Z,2.38
2022-07-27T02:27:42.147Z,2.53
2022-07-27T02:30:11.604Z,2.22
2022-07-27T02:32:40.979Z,2.40
2022-07-27T02:35:19.457Z,2.08
2022-07-27T02:37:48.967Z,2.67
2022-07-27T02:40:17.881Z,2.65
2022-07-27T02:42:47.113Z,2.80
2022-07-27T02:45:15.457Z,2.72
2022-07-27T02:47:44.057Z,2.10
2022-07-27T02:50:11.820Z,2.20
2022-07-27T02:52:40.035Z,2.30
2022-07-27T02:55:08.679Z,2.20
2022-07-27T02:57:38.091Z,1.70
2022-07-27T03:00:07.953Z,2.05
2022-07-27T03:02:36.776Z,2.20
2022-07-27T03:05:09.473Z,2.25
2022-07-27T03:07:37.705Z,2.63
2022-07-27T03:10:06.037Z,2.10
2022-07-27T03:12:33.679Z,2.28
2022-07-27T03:15:01.162Z,2.40
2022-07-27T03:17:28.721Z,2.40
2022-07-27T03:19:56.221Z,2.20
2022-07-27T03:22:23.816Z,2.30
2022-07-27T03:24:51.295Z,1.90
2022-07-27T03:27:18.887Z,2.50
2022-07-27T03:29:46.381Z,2.22
2022-07-27T03:32:13.906Z,2.08
2022-07-27T03:34:41.453Z,1.95
2022-07-27T03:37:09.030Z,2.63
2022-07-27T03:39:36.557Z,2.60
2022-07-27T03:42:04.471Z,2.08
2022-07-27T03:44:32.121Z,2.00
2022-07-27T03:46:59.886Z,2.58
2022-07-27T03:49:27.487Z,2.45
2022-07-27T03:51:55.095Z,2.45
2022-07-27T03:54:22.611Z,2.60
2022-07-27T03:56:50.226Z,1.65
2022-07-27T03:59:17.668Z,2.08
2022-07-27T04:01:46.194Z,1.42
2022-07-27T04:04:14.311Z,2.20
2022-07-27T04:06:41.835Z,1.30
2022-07-27T04:09:09.299Z,1.85
2022-07-27T04:11:43.744Z,1.75
2022-07-27T04:14:19.145Z,1.83
2022-07-27T04:16:47.438Z,1.75
2022-07-27T04:19:15.813Z,1.60
2022-07-27T04:21:43.565Z,2.05
2022-07-27T04:24:11.255Z,1.77
2022-07-27T04:26:38.907Z,1.80
2022-07-27T04:29:06.460Z,1.70
2022-07-27T04:31:33.956Z,2.05
2022-07-27T04:34:01.555Z,1.90
2022-07-27T04:36:29.149Z,1.55
2022-07-27T04:38:56.719Z,1.98
2022-07-27T04:41:24.146Z,2.28
2022-07-27T04:43:59.123Z,1.80
2022-07-27T04:46:29.886Z,1.55
2022-07-27T04:48:58.226Z,1.45
2022-07-27T04:51:25.917Z,1.35
2022-07-27T04:53:58.393Z,1.80
2022-07-27T04:56:27.618Z,1.67
2022-07-27T04:58:56.289Z,1.67
2022-07-27T05:01:25.597Z,1.50
2022-07-27T05:03:54.418Z,1.40
2022-07-27T05:06:22.084Z,1.88
2022-07-27T05:08:49.578Z,2.10
2022-07-27T05:11:18.370Z,1.50
2022-07-27T05:13:45.906Z,1.95
2022-07-27T05:16:13.418Z,1.85
2022-07-27T05:18:41.320Z,1.85
2022-07-27T05:21:09.826Z,1.63
2022-07-27T05:23:37.478Z,1.45
2022-07-27T05:26:05.122Z,1.48
2022-07-27T05:28:33.948Z,1.65
2022-07-27T05:31:01.435Z,1.48
2022-07-27T05:33:29.145Z,1.67
2022-07-27T05:35:57.249Z,1.88
2022-07-27T05:38:24.950Z,1.70
2022-07-27T05:40:53.542Z,1.58
2022-07-27T05:43:21.280Z,1.50
2022-07-27T05:45:48.845Z,2.15
2022-07-27T05:48:16.505Z,1.30
2022-07-27T05:50:44.001Z,1.50
2022-07-27T05:53:11.610Z,2.33
2022-07-27T05:55:39.113Z,1.50
2022-07-27T05:58:29.944Z,1.48
2022-07-27T06:00:58.132Z,1.70
2022-07-27T06:03:26.433Z,1.63
2022-07-27T06:06:14.111Z,1.60
2022-07-27T06:08:41.707Z,2.58
2022-07-27T06:11:09.296Z,1.73
2022-07-27T06:13:37.529Z,2.33
2022-07-27T06:16:10.649Z,1.48
2022-07-27T06:18:38.310Z,1.67
2022-07-27T06:21:06.140Z,2.10
2022-07-27T06:23:33.848Z,1.45
2022-07-27T06:26:01.569Z,1.20
2022-07-27T06:28:29.029Z,1.27
2022-07-27T06:31:35.631Z,1.63
2022-07-27T06:34:04.210Z,1.58
2022-07-27T06:36:42.518Z,1.52
2022-07-27T06:39:10.576Z,1.52
2022-07-27T06:41:38.376Z,1.50
2022-07-27T06:44:06.019Z,2.00
2022-07-27T06:46:59.253Z,1.63
2022-07-27T06:49:26.908Z,1.17
2022-07-27T06:51:54.500Z,1.52
2022-07-27T06:54:22.399Z,1.88
2022-07-27T06:56:49.945Z,1.50
2022-07-27T06:59:17.614Z,2.25
2022-07-27T07:01:48.800Z,1.58
2022-07-27T07:04:17.400Z,1.70
2022-07-27T07:06:50.816Z,1.60
2022-07-27T07:09:18.388Z,1.83
2022-07-27T07:11:45.908Z,1.52
2022-07-27T07:14:13.389Z,2.15
2022-07-27T07:16:41.304Z,2.25
2022-07-27T07:19:09.339Z,1.60
2022-07-27T07:21:37.108Z,2.20
2022-07-27T07:24:04.975Z,2.30
2022-07-27T07:26:32.989Z,1.83
2022-07-27T07:29:00.518Z,1.90
2022-07-27T07:31:28.301Z,1.70
2022-07-27T07:33:55.871Z,1.98
2022-07-27T07:36:23.416Z,1.70
2022-07-27T07:38:50.900Z,1.60
2022-07-27T07:41:18.460Z,2.42
2022-07-27T07:43:45.920Z,1.83
2022-07-27T07:46:13.489Z,2.13
2022-07-27T07:48:43.579Z,1.80
2022-07-27T07:51:11.496Z,1.60
2022-07-27T07:53:41.717Z,1.65
2022-07-27T07:56:09.629Z,1.30
2022-07-27T07:58:37.341Z,1.50
2022-07-27T08:01:04.888Z,2.03
2022-07-27T08:03:32.332Z,1.50
2022-07-27T08:05:59.916Z,1.60
2022-07-27T08:08:30.309Z,1.88
2022-07-27T08:10:57.858Z,1.35
2022-07-27T08:13:25.328Z,1.23
2022-07-27T08:15:53.289Z,1.33
2022-07-27T08:18:21.409Z,1.80
2022-07-27T08:20:49.515Z,1.35
2022-07-27T08:23:17.316Z,1.30
2022-07-27T08:25:44.883Z,0.90
2022-07-27T08:28:12.391Z,1.10
2022-07-27T08:30:40.134Z,1.15
2022-07-27T08:33:07.727Z,1.15
2022-07-27T08:35:35.773Z,1.50
2022-07-27T08:38:06.229Z,1.27
2022-07-27T08:40:44.119Z,1.27
2022-07-27T08:43:24.990Z,1.30
2022-07-27T08:45:58.918Z,1.40
2022-07-27T08:48:28.344Z,1.13
2022-07-27T08:50:56.279Z,1.52
2022-07-27T08:53:24.004Z,1.50
2022-07-27T08:55:51.847Z,1.35
2022-07-27T08:58:19.510Z,1.65
2022-07-27T09:00:50.289Z,1.48
2022-07-27T09:03:21.651Z,1.58
2022-07-27T09:05:52.574Z,1.58
2022-07-27T09:08:25.823Z,1.55
2022-07-27T09:10:55.785Z,1.40
2022-07-27T09:13:27.657Z,1.63
2022-07-27T09:16:23.577Z,1.95
2022-07-27T09:19:00.596Z,1.83
2022-07-27T09:21:28.698Z,1.48
2022-07-27T09:24:18.010Z,1.38
2022-07-27T09:27:03.296Z,1.00
2022-07-27T09:29:35.549Z,1.20
2022-07-27T09:32:14.952Z,1.17
2022-07-27T09:34:44.013Z,1.45
2022-07-27T09:37:12.549Z,1.20
2022-07-27T09:39:40.172Z,1.70
2022-07-27T09:42:47.832Z,1.20
2022-07-27T09:45:04.202Z,1.23
2022-07-27T09:47:32.114Z,1.10
2022-07-27T09:50:20.734Z,1.42
2022-07-27T09:52:48.437Z,1.17
2022-07-27T09:55:20.457Z,1.20
2022-07-27T09:57:56.735Z,1.02
2022-07-27T10:00:25.496Z,1.50
2022-07-27T10:02:54.204Z,1.60
2022-07-27T10:05:23.004Z,1.00
2022-07-27T10:07:52.478Z,1.33
2022-07-27T10:10:20.919Z,1.23
2022-07-27T10:12:54.621Z,1.23
2022-07-27T10:15:24.642Z,1.08
2022-07-27T10:18:01.844Z,1.13
2022-07-27T10:20:31.931Z,0.88
2022-07-27T10:22:59.916Z,1.10
2022-07-27T10:25:32.401Z,0.95
2022-07-27T10:28:16.596Z,1.38
2022-07-27T10:30:47.252Z,0.80
2022-07-27T10:34:03.983Z,0.95
2022-07-27T10:36:33.433Z,1.20
2022-07-27T10:39:09.766Z,1.98
2022-07-27T10:41:41.682Z,1.55
2022-07-27T10:44:15.488Z,1.50
2022-07-27T10:46:50.969Z,1.00
2022-07-27T10:49:20.412Z,1.48
2022-07-27T10:51:48.988Z,1.15
2022-07-27T10:54:34.853Z,1.08
2022-07-27T10:57:05.256Z,1.30
2022-07-27T11:00:12.197Z,1.20
2022-07-27T11:02:42.689Z,1.52
2022-07-27T11:08:35.616Z,1.10
2022-07-27T11:10:50.442Z,1.20
2022-07-27T11:13:23.014Z,1.50
2022-07-27T11:16:25.724Z,0.90
2022-07-27T11:19:04.967Z,1.13
2022-07-27T11:21:39.698Z,1.10
2022-07-27T11:24:17.608Z,1.13
2022-07-27T11:26:51.470Z,1.00
2022-07-27T11:29:22.009Z,0.98
2022-07-27T11:31:58.975Z,1.10
2022-07-27T11:34:36.872Z,0.80
2022-07-27T11:37:14.303Z,0.98
2022-07-27T11:42:39.958Z,1.10
2022-07-27T11:45:08.152Z,1.38
2022-07-27T11:47:37.115Z,1.10
2022-07-27T11:50:09.337Z,1.05
2022-07-27T11:52:36.973Z,0.85
2022-07-27T11:55:04.905Z,1.20
2022-07-27T11:57:34.000Z,1.17
2022-07-27T12:00:02.355Z,0.82
2022-07-27T12:02:49.046Z,0.90
2022-07-27T12:05:16.706Z,1.30
2022-07-27T12:07:44.758Z,1.30
2022-07-27T12:10:13.559Z,1.23
2022-07-27T12:12:41.374Z,1.52
2022-07-27T12:18:06.155Z,1.70
2022-07-27T12:20:36.057Z,1.50
2022-07-27T12:23:06.843Z,1.90
2022-07-27T12:25:35.711Z,1.65
2022-07-27T12:28:04.686Z,2.25
2022-07-27T12:30:36.515Z,1.52
2022-07-27T12:33:06.941Z,1.88
2022-07-27T12:35:46.641Z,1.88
2022-07-27T12:38:14.713Z,1.60
2022-07-27T12:41:00.615Z,1.58
2022-07-27T12:43:29.702Z,1.40
2022-07-27T12:45:57.842Z,1.60
2022-07-27T12:48:27.644Z,1.60
2022-07-27T12:51:04.432Z,1.38
2022-07-27T12:53:33.182Z,1.63
2022-07-27T12:56:04.875Z,1.08
2022-07-27T12:58:32.977Z,1.17
2022-07-27T13:01:00.959Z,1.08
2022-07-27T13:03:28.581Z,1.52
2022-07-27T13:05:56.036Z,1.15
2022-07-27T13:08:23.766Z,1.00
2022-07-27T13:10:54.254Z,0.70
2022-07-27T13:13:24.956Z,1.10
2022-07-27T13:15:52.650Z,1.23
2022-07-27T13:18:23.718Z,1.23
2022-07-27T13:20:52.262Z,1.20
2022-07-27T13:23:20.442Z,1.25
2022-07-27T13:25:48.036Z,1.20
2022-07-27T13:28:15.491Z,1.00
2022-07-27T13:30:43.136Z,1.25
2022-07-27T13:33:10.888Z,1.10
2022-07-27T13:35:38.453Z,1.38
2022-07-27T13:38:05.943Z,1.60
2022-07-27T13:40:33.522Z,1.25
2022-07-27T13:43:01.027Z,1.10
2022-07-27T13:45:28.723Z,1.00
2022-07-27T13:48:09.881Z,1.33
2022-07-27T13:50:37.464Z,1.52
2022-07-27T13:53:05.017Z,1.23
2022-07-27T13:55:32.501Z,0.95
2022-07-27T13:58:00.101Z,1.00
2022-07-27T14:00:27.589Z,0.80
2022-07-27T14:02:55.190Z,1.40
2022-07-27T14:05:22.773Z,1.30
2022-07-27T14:07:53.171Z,1.17
2022-07-27T14:14:34.123Z,0.90
2022-07-27T14:17:01.610Z,1.20
2022-07-27T14:19:32.655Z,0.85
2022-07-27T14:22:00.174Z,0.88
2022-07-27T14:24:27.709Z,1.58
2022-07-27T14:26:57.313Z,1.48
2022-07-27T14:29:24.919Z,0.80
2022-07-27T14:31:52.452Z,1.35
2022-07-27T14:34:19.952Z,1.00
2022-07-27T14:36:47.503Z,1.10
2022-07-27T14:39:15.479Z,1.52
2022-07-27T14:41:44.495Z,0.85
2022-07-27T14:44:12.158Z,1.10
2022-07-27T14:46:39.751Z,1.10
2022-07-27T14:49:08.697Z,0.90
2022-07-27T14:51:36.709Z,0.90
2022-07-27T14:54:04.757Z,1.10
2022-07-27T14:56:32.231Z,0.88
2022-07-27T14:58:59.797Z,1.00
2022-07-27T15:01:27.361Z,0.90
2022-07-27T15:03:56.553Z,1.02
2022-07-27T15:06:24.156Z,1.20
2022-07-27T15:08:51.715Z,1.33
2022-07-27T15:11:19.472Z,1.05
2022-07-27T15:13:47.154Z,1.10
2022-07-27T15:16:14.812Z,1.50
2022-07-27T15:18:42.568Z,1.83
2022-07-27T15:21:14.113Z,1.40
2022-07-27T15:23:43.662Z,1.60
2022-07-27T15:26:12.726Z,1.50
2022-07-27T15:28:42.473Z,1.30
2022-07-27T15:31:10.382Z,1.20
2022-07-27T15:33:38.051Z,1.20
2022-07-27T15:36:05.853Z,0.70
2022-07-27T15:38:33.413Z,0.80
2022-07-27T15:41:01.163Z,1.05
2022-07-27T15:43:28.598Z,0.90
2022-07-27T15:45:56.149Z,1.00
2022-07-27T15:48:23.742Z,0.70
2022-07-27T15:50:53.892Z,0.82
2022-07-27T15:53:22.812Z,1.10
2022-07-27T15:55:52.551Z,1.08
2022-07-27T15:58:21.838Z,0.93
2022-07-27T16:00:55.975Z,0.90
2022-07-27T16:03:26.248Z,0.80
2022-07-27T16:05:54.503Z,1.20
2022-07-27T16:08:22.493Z,0.73
2022-07-27T16:10:50.403Z,0.80
2022-07-27T16:13:17.991Z,0.80
2022-07-27T16:16:04.375Z,0.93
2022-07-27T16:18:36.807Z,0.80
2022-07-27T16:21:07.321Z,0.88
2022-07-27T16:23:34.914Z,0.93
2022-07-27T16:26:05.106Z,0.93
2022-07-27T16:28:40.055Z,1.00
2022-07-27T16:31:10.536Z,1.17
2022-07-27T16:33:38.778Z,0.75
2022-07-27T16:36:08.549Z,0.70
2022-07-27T16:38:37.842Z,1.00
2022-07-27T16:41:09.662Z,1.02
2022-07-27T16:43:39.131Z,0.80
2022-07-27T16:46:08.790Z,1.40
2022-07-27T16:48:41.769Z,0.90
2022-07-27T16:51:15.581Z,1.10
2022-07-27T16:53:45.791Z,0.98
2022-07-27T16:56:14.737Z,1.02
2022-07-27T16:58:43.577Z,1.00
2022-07-27T17:01:21.936Z,0.73
2022-07-27T17:03:54.075Z,1.00
2022-07-27T17:06:21.880Z,0.77
2022-07-27T17:08:49.411Z,0.88
2022-07-27T17:11:21.456Z,1.10
2022-07-27T17:13:50.651Z,1.17
2022-07-27T17:16:18.825Z,0.77
2022-07-27T17:18:46.481Z,1.10
2022-07-27T17:21:14.056Z,0.90
2022-07-27T17:23:42.647Z,1.08
2022-07-27T17:26:12.814Z,0.98
2022-07-27T17:28:40.967Z,1.33
2022-07-27T17:31:12.782Z,1.00
2022-07-27T17:33:41.432Z,1.00
2022-07-27T17:36:14.590Z,0.70
2022-07-27T17:41:12.413Z,0.90
2022-07-27T17:43:40.464Z,0.93
2022-07-27T17:46:10.187Z,0.60
2022-07-27T17:48:38.905Z,0.70
2022-07-27T17:51:08.351Z,0.98
2022-07-27T17:53:36.711Z,0.70
2022-07-27T17:56:05.058Z,0.90
2022-07-27T17:58:32.638Z,0.70
2022-07-27T18:01:00.429Z,0.80
2022-07-27T18:03:28.158Z,0.80
2022-07-27T18:05:55.726Z,1.65
2022-07-27T18:08:23.492Z,0.77
2022-07-27T18:10:51.729Z,1.08
2022-07-27T18:13:20.078Z,1.17
2022-07-27T18:15:47.752Z,0.90
2022-07-27T18:18:21.426Z,0.85
2022-07-27T18:20:52.487Z,1.17
2022-07-27T18:23:21.990Z,0.77
2022-07-27T18:25:51.730Z,0.90
2022-07-27T18:28:19.316Z,1.05
2022-07-27T18:30:48.279Z,1.00
2022-07-27T18:33:17.332Z,0.90
2022-07-27T18:35:45.993Z,1.00
2022-07-27T18:38:14.486Z,0.70
2022-07-27T18:40:46.867Z,1.00
2022-07-27T18:43:16.866Z,1.10
2022-07-27T18:45:44.765Z,0.80
2022-07-27T18:48:12.592Z,0.80
2022-07-27T18:50:41.141Z,1.20
2022-07-27T18:53:09.272Z,1.17
2022-07-27T18:55:37.622Z,0.88
2022-07-27T18:58:05.690Z,0.77
2022-07-27T19:00:34.082Z,0.90
2022-07-27T19:03:02.971Z,0.95
2022-07-27T19:05:41.516Z,1.00
2022-07-27T19:08:13.222Z,1.02
2022-07-27T19:10:42.991Z,0.80
2022-07-27T19:13:11.981Z,0.70
2022-07-27T19:15:40.457Z,0.80
2022-07-27T19:18:09.369Z,0.70
2022-07-27T19:20:37.890Z,0.70
2022-07-27T19:23:06.441Z,0.75
2022-07-27T19:25:34.634Z,0.60
2022-07-27T19:28:04.203Z,0.70
2022-07-27T19:30:32.170Z,0.75
2022-07-27T19:33:00.094Z,0.90
2022-07-27T19:35:29.131Z,0.90
2022-07-27T19:37:57.092Z,0.73
2022-07-27T19:40:43.996Z,0.70
2022-07-27T19:43:15.361Z,0.85
2022-07-27T19:45:43.752Z,0.47
2022-07-27T19:48:11.898Z,0.68
2022-07-27T19:50:39.811Z,0.93
2022-07-27T19:53:08.648Z,0.93
2022-07-27T19:55:36.706Z,1.00
2022-07-27T19:58:04.420Z,0.90
2022-07-27T20:00:32.263Z,0.90
2022-07-27T20:02:59.879Z,0.82
2022-07-27T20:05:27.736Z,0.80
2022-07-27T20:07:55.387Z,0.82
2022-07-27T20:10:23.337Z,0.80
2022-07-27T20:12:51.466Z,1.15
2022-07-27T20:15:19.157Z,1.10
2022-07-27T20:17:50.531Z,1.10
2022-07-27T20:20:19.813Z,1.00
2022-07-27T20:22:47.768Z,1.25
2022-07-27T20:25:15.476Z,1.48
2022-07-27T20:27:43.291Z,1.20
2022-07-27T20:30:11.964Z,1.83
2022-07-27T20:32:39.566Z,1.95
2022-07-27T20:35:07.432Z,1.67
2022-07-27T20:37:35.076Z,1.30
2022-07-27T20:40:05.446Z,1.70
2022-07-27T20:42:33.307Z,1.45
2022-07-27T20:45:00.836Z,1.65
2022-07-27T20:47:34.342Z,1.42
2022-07-27T20:50:02.491Z,2.10
2022-07-27T20:52:29.976Z,1.70
2022-07-27T20:54:57.980Z,1.63
2022-07-27T20:57:25.832Z,1.73
2022-07-27T20:59:53.546Z,1.33
2022-07-27T21:02:21.137Z,1.50
2022-07-27T21:04:48.706Z,1.42
2022-07-27T21:07:16.242Z,1.90
2022-07-27T21:09:43.786Z,1.55
2022-07-27T21:12:11.236Z,1.98
2022-07-27T21:14:38.761Z,1.63
2022-07-27T21:17:06.510Z,1.75
2022-07-27T21:19:34.166Z,1.70
2022-07-27T21:22:01.643Z,1.90
2022-07-27T21:24:30.068Z,1.60
2022-07-27T21:27:00.981Z,1.58
2022-07-27T21:29:32.430Z,2.00
2022-07-27T21:31:59.910Z,1.90
2022-07-27T21:34:27.709Z,1.90
2022-07-27T21:36:55.166Z,1.98
2022-07-27T21:39:23.121Z,1.95
2022-07-27T21:41:50.849Z,1.75
2022-07-27T21:44:18.601Z,2.00
2022-07-27T21:46:46.109Z,1.90
2022-07-27T21:49:14.038Z,1.83
2022-07-27T21:51:41.659Z,1.80
2022-07-27T21:54:09.340Z,2.20
2022-07-27T21:56:41.068Z,1.67
2022-07-27T21:59:10.167Z,1.90
2022-07-27T22:01:37.708Z,2.00
2022-07-27T22:04:06.326Z,2.35
2022-07-27T22:06:34.005Z,2.08
2022-07-27T22:09:01.563Z,1.92
2022-07-27T22:11:29.030Z,2.45
2022-07-27T22:13:56.719Z,2.30
2022-07-27T22:16:24.390Z,2.40
2022-07-27T22:18:52.049Z,2.17
2022-07-27T22:21:19.541Z,1.58
2022-07-27T22:23:49.305Z,1.73
2022-07-27T22:26:17.571Z,1.90
2022-07-27T22:28:45.114Z,1.50
2022-07-27T22:31:21.533Z,1.80
2022-07-27T22:33:50.980Z,2.30
2022-07-27T22:36:18.786Z,2.38
2022-07-27T22:38:46.531Z,2.10
2022-07-27T22:41:14.244Z,2.33
2022-07-27T22:43:41.786Z,2.10
2022-07-27T22:46:10.152Z,2.05
2022-07-27T22:48:38.541Z,2.38
2022-07-27T22:51:06.077Z,2.25
2022-07-27T22:53:34.199Z,2.17
2022-07-27T22:56:01.674Z,2.20
2022-07-27T22:58:29.194Z,2.50
2022-07-27T23:00:59.639Z,2.42
2022-07-27T23:03:27.750Z,2.65
2022-07-27T23:05:55.408Z,2.35
2022-07-27T23:08:23.184Z,2.95
2022-07-27T23:10:50.771Z,2.40
2022-07-27T23:13:20.018Z,2.63
2022-07-27T23:15:48.069Z,2.38
2022-07-27T23:18:17.005Z,2.40
2022-07-27T23:20:45.151Z,2.50
2022-07-27T23:23:16.106Z,2.15
2022-07-27T23:25:45.763Z,2.33
2022-07-27T23:28:15.503Z,2.35
2022-07-27T23:30:43.176Z,2.80
2022-07-27T23:33:10.960Z,2.45
2022-07-27T23:35:38.420Z,2.40
2022-07-27T23:38:06.073Z,2.40
2022-07-27T23:40:33.666Z,2.35
2022-07-27T23:43:01.162Z,2.30
2022-07-27T23:45:28.741Z,2.20
2022-07-27T23:47:56.547Z,2.03
2022-07-27T23:50:24.172Z,1.98
2022-07-27T23:52:52.314Z,2.38
2022-07-27T23:55:19.960Z,2.10
2022-07-27T23:57:47.538Z,2.03
